createdAt,value
2018-02-17T00:00:55.785Z,7.60
2018-02-17T00:03:24.096Z,7.73
2018-02-17T00:05:53.170Z,7.60
2018-02-17T00:08:21.499Z,7.07
2018-02-17T00:10:50.651Z,6.70
2018-02-17T00:13:18.965Z,7.93
2018-02-17T00:15:47.277Z,7.90
2018-02-17T00:18:15.592Z,7.20
2018-02-17T00:20:43.922Z,7.83
2018-02-17T00:23:13.008Z,7.50
2018-02-17T00:25:41.403Z,7.10
2018-02-17T00:28:10.482Z,6.93
2018-02-17T00:30:38.794Z,6.30
2018-02-17T00:33:07.889Z,6.67
2018-02-17T00:35:36.954Z,7.80
2018-02-17T00:38:05.271Z,7.67
2018-02-17T00:40:33.593Z,6.80
2018-02-17T00:43:01.899Z,7.20
2018-02-17T00:45:30.209Z,7.17
2018-02-17T00:47:58.492Z,7.07
2018-02-17T00:50:26.782Z,7.40
2018-02-17T00:52:56.629Z,7.27
2018-02-17T00:55:25.694Z,7.40
2018-02-17T00:57:53.994Z,7.80
2018-02-17T01:00:23.046Z,7.67
2018-02-17T01:02:51.360Z,7.40
2018-02-17T01:05:19.676Z,7.10
2018-02-17T01:07:48.093Z,7.53
2018-02-17T01:10:17.364Z,7.60
2018-02-17T01:12:45.694Z,8.27
2018-02-17T01:15:14.047Z,8.40
2018-02-17T01:17:42.368Z,7.37
2018-02-17T01:20:10.684Z,7.23
2018-02-17T01:22:39.737Z,7.10
2018-02-17T01:25:08.058Z,6.73
2018-02-17T01:27:37.138Z,8.00
2018-02-17T01:30:05.465Z,8.10
2018-02-17T01:32:33.801Z,8.80
2018-02-17T01:35:02.184Z,7.23
2018-02-17T01:37:30.622Z,7.10
2018-02-17T01:39:58.963Z,7.10
2018-02-17T01:42:27.280Z,7.10
2018-02-17T01:44:56.342Z,9.03
2018-02-17T01:47:26.159Z,7.53
2018-02-17T01:49:55.242Z,8.30
2018-02-17T01:52:23.574Z,7.37
2018-02-17T01:54:52.652Z,8.00
2018-02-17T01:57:21.862Z,7.93
2018-02-17T01:59:50.969Z,7.87
2018-02-17T02:02:20.052Z,7.97
2018-02-17T02:04:48.356Z,7.40
2018-02-17T02:07:17.434Z,7.70
2018-02-17T02:09:46.620Z,7.67
2018-02-17T02:12:15.654Z,8.20
2018-02-17T02:14:44.741Z,7.67
2018-02-17T02:17:13.829Z,7.30
2018-02-17T02:19:42.140Z,6.90
2018-02-17T02:22:10.460Z,6.60
2018-02-17T02:24:38.784Z,7.93
2018-02-17T02:27:07.857Z,7.03
2018-02-17T02:29:36.167Z,7.47
2018-02-17T02:32:05.249Z,7.17
2018-02-17T02:34:33.580Z,7.80
2018-02-17T02:37:01.879Z,6.93
2018-02-17T02:39:30.188Z,7.50
2018-02-17T02:41:58.496Z,7.50
2018-02-17T02:44:26.816Z,7.90
2018-02-17T02:46:55.731Z,7.73
2018-02-17T02:49:24.051Z,8.43
2018-02-17T02:51:53.136Z,10.20
2018-02-17T02:54:21.434Z,8.50
2018-02-17T02:56:50.526Z,7.90
2018-02-17T02:59:19.609Z,8.20
2018-02-17T03:01:47.975Z,9.03
2018-02-17T03:04:16.320Z,8.53
2018-02-17T03:06:44.720Z,8.83
2018-02-17T03:09:13.010Z,8.43
2018-02-17T03:11:42.061Z,8.50
2018-02-17T03:14:11.157Z,8.57
2018-02-17T03:16:40.306Z,7.50
2018-02-17T03:19:08.638Z,7.73
2018-02-17T03:21:37.015Z,7.63
2018-02-17T03:24:05.342Z,7.57
2018-02-17T03:26:33.643Z,6.93
2018-02-17T03:29:01.967Z,7.50
2018-02-17T03:31:31.048Z,7.00
2018-02-17T03:33:59.349Z,7.33
2018-02-17T03:36:28.439Z,6.97
2018-02-17T03:38:56.912Z,7.00
2018-02-17T03:41:25.272Z,7.43
2018-02-17T03:43:53.627Z,7.17
2018-02-17T03:46:21.929Z,7.30
2018-02-17T03:48:50.246Z,6.83
2018-02-17T03:51:18.578Z,6.83
2018-02-17T03:53:46.883Z,7.30
2018-02-17T03:56:15.209Z,6.63
2018-02-17T03:58:44.284Z,8.10
2018-02-17T04:01:12.617Z,7.80
2018-02-17T04:03:40.938Z,7.60
2018-02-17T04:06:09.303Z,7.90
2018-02-17T04:08:37.718Z,7.27
2018-02-17T04:11:06.042Z,8.80
2018-02-17T04:13:34.352Z,7.27
2018-02-17T04:16:02.652Z,7.40
2018-02-17T04:18:30.966Z,8.63
2018-02-17T04:21:00.044Z,8.60
2018-02-17T04:23:28.384Z,7.57
2018-02-17T04:25:56.691Z,20.13
2018-02-17T04:28:25.002Z,9.10
2018-02-17T04:30:54.083Z,8.17
2018-02-17T04:33:22.429Z,8.03
2018-02-17T04:35:50.732Z,7.00
2018-02-17T04:38:19.043Z,7.23
2018-02-17T04:40:48.631Z,7.60
2018-02-17T04:43:19.919Z,7.83
2018-02-17T04:49:02.106Z,8.37
2018-02-17T04:54:46.588Z,8.03
2018-02-17T04:57:20.349Z,9.40
2018-02-17T04:59:54.915Z,7.97
2018-02-17T05:02:29.504Z,7.70
2018-02-17T05:07:55.959Z,8.30
2018-02-17T05:10:25.034Z,9.20
2018-02-17T05:12:53.336Z,8.47
2018-02-17T05:15:21.646Z,9.03
2018-02-17T05:17:50.405Z,8.87
2018-02-17T05:20:23.094Z,8.50
2018-02-17T05:22:53.558Z,9.30
2018-02-17T05:25:27.775Z,10.10
2018-02-17T05:27:56.121Z,10.10
2018-02-17T05:30:25.481Z,9.80
2018-02-17T05:33:01.206Z,8.70
2018-02-17T05:35:31.832Z,9.10
2018-02-17T05:38:00.922Z,8.67
2018-02-17T05:40:31.803Z,8.50
2018-02-17T05:43:00.159Z,8.53
2018-02-17T05:45:28.775Z,7.57
2018-02-17T05:48:01.511Z,10.00
2018-02-17T05:50:31.497Z,10.27
2018-02-17T05:52:59.821Z,8.03
2018-02-17T05:55:28.911Z,8.43
2018-02-17T05:57:58.068Z,8.30
2018-02-17T06:00:26.362Z,8.60
2018-02-17T06:02:54.698Z,8.40
2018-02-17T06:05:23.051Z,7.93
2018-02-17T06:07:51.422Z,7.47
2018-02-17T06:10:19.765Z,7.70
2018-02-17T06:12:48.055Z,10.20
2018-02-17T06:15:16.357Z,7.97
2018-02-17T06:17:44.691Z,8.70
2018-02-17T06:20:13.778Z,8.47
2018-02-17T06:22:42.864Z,8.67
2018-02-17T06:25:11.964Z,8.80
2018-02-17T06:27:41.116Z,7.90
2018-02-17T06:30:09.453Z,7.70
2018-02-17T06:32:38.547Z,7.73
2018-02-17T06:35:06.918Z,8.13
2018-02-17T06:37:35.295Z,7.20
2018-02-17T06:40:03.610Z,7.27
2018-02-17T06:42:32.695Z,8.70
2018-02-17T06:45:01.802Z,9.47
2018-02-17T06:47:30.882Z,7.23
2018-02-17T06:49:59.225Z,7.33
2018-02-17T06:52:27.532Z,8.97
2018-02-17T06:54:55.853Z,7.60
2018-02-17T06:57:24.909Z,7.83
2018-02-17T06:59:53.341Z,8.10
2018-02-17T07:02:21.645Z,8.40
2018-02-17T07:04:50.024Z,8.43
2018-02-17T07:07:18.318Z,7.60
2018-02-17T07:09:46.632Z,9.00
2018-02-17T07:12:14.978Z,9.40
2018-02-17T09:17:56.484Z,14.63
2018-02-17T09:20:24.836Z,13.87
2018-02-17T09:22:53.144Z,14.10
2018-02-17T09:25:21.470Z,15.30
2018-02-17T09:27:50.531Z,14.77
2018-02-17T09:30:19.982Z,14.60
2018-02-17T09:32:49.092Z,15.40
2018-02-17T09:35:18.072Z,16.93
2018-02-17T09:37:47.136Z,15.83
2018-02-17T09:40:15.450Z,16.00
2018-02-17T09:42:44.522Z,17.23
2018-02-17T09:45:12.910Z,16.67
2018-02-17T09:47:41.232Z,16.47
2018-02-17T09:50:09.526Z,17.00
2018-02-17T09:52:37.828Z,16.40
2018-02-17T09:55:06.138Z,15.83
2018-02-17T09:57:34.520Z,17.20
2018-02-17T10:00:02.859Z,15.50
2018-02-17T10:02:31.178Z,16.60
2018-02-17T10:04:59.500Z,16.93
2018-02-17T10:07:27.817Z,16.80
2018-02-17T10:09:56.164Z,17.23
2018-02-17T10:12:24.510Z,17.47
2018-02-17T10:14:52.851Z,16.50
2018-02-17T10:17:21.246Z,26.57
2018-02-17T10:19:49.605Z,16.70
2018-02-17T10:22:17.913Z,18.10
2018-02-17T10:24:46.284Z,18.30
2018-02-17T10:27:14.638Z,18.60
2018-02-17T10:29:42.943Z,18.90
2018-02-17T10:32:11.253Z,17.40
2018-02-17T10:34:39.635Z,18.67
2018-02-17T10:37:08.212Z,18.40
2018-02-17T10:39:36.538Z,18.47
2018-02-17T10:42:05.611Z,18.50
2018-02-17T10:44:33.924Z,19.30
2018-02-17T10:47:02.243Z,19.60
2018-02-17T10:49:30.648Z,20.23
2018-02-17T10:51:59.809Z,18.03
2018-02-17T10:54:28.143Z,19.20
2018-02-17T10:56:56.543Z,19.20
2018-02-17T10:59:25.627Z,18.93
2018-02-17T11:01:54.726Z,19.63
2018-02-17T11:04:23.189Z,18.77
2018-02-17T11:06:51.523Z,19.63
2018-02-17T11:09:19.839Z,18.80
2018-02-17T11:11:48.155Z,21.07
2018-02-17T11:14:16.463Z,19.73
2018-02-17T11:16:44.786Z,20.43
2018-02-17T11:19:13.101Z,20.50
2018-02-17T11:21:42.187Z,19.80
2018-02-17T11:24:10.508Z,20.33
2018-02-17T11:26:38.812Z,21.30
2018-02-17T11:29:07.142Z,20.50
2018-02-17T11:31:36.255Z,21.10
2018-02-17T11:34:05.370Z,20.60
2018-02-17T11:36:33.714Z,19.70
2018-02-17T11:39:02.083Z,20.83
2018-02-17T11:41:30.419Z,21.70
2018-02-17T16:40:22.679Z,30.50
2018-02-17T16:42:51.020Z,27.00
2018-02-17T16:45:19.342Z,28.57
2018-02-17T16:47:48.463Z,27.83
2018-02-17T16:50:16.804Z,30.67
2018-02-17T16:52:45.881Z,29.77
2018-02-17T16:55:14.226Z,30.40
2018-02-17T16:57:42.527Z,31.60
2018-02-17T17:00:10.888Z,30.20
2018-02-17T17:02:40.031Z,33.85
2018-02-17T17:05:09.191Z,32.17
2018-02-17T17:07:37.521Z,34.20
2018-02-17T17:10:05.826Z,31.00
2018-02-17T17:12:35.050Z,30.57
2018-02-17T17:15:03.398Z,31.60
2018-02-17T17:17:31.686Z,31.67
2018-02-17T17:20:00.788Z,32.17
2018-02-17T17:22:29.999Z,31.60
2018-02-17T17:24:58.334Z,31.70
2018-02-17T17:27:26.651Z,36.05
2018-02-17T17:29:55.748Z,34.27
2018-02-17T17:32:24.867Z,33.30
2018-02-17T17:34:53.188Z,32.03
2018-02-17T17:37:22.412Z,32.37
2018-02-17T17:39:50.865Z,32.33
2018-02-17T17:42:19.185Z,30.03
2018-02-17T17:44:48.307Z,30.33
2018-02-17T17:47:17.358Z,32.53
2018-02-17T17:49:45.659Z,32.83
2018-02-17T17:52:13.971Z,38.70
2018-02-17T17:54:42.292Z,38.00
2018-02-17T17:57:10.608Z,36.73
2018-02-17T17:59:39.700Z,39.33
2018-02-17T18:02:08.029Z,30.93
2018-02-17T18:04:36.341Z,32.63
2018-02-17T18:07:04.682Z,36.63
2018-02-17T18:09:33.000Z,34.87
2018-02-17T18:12:01.327Z,34.30
2018-02-17T18:14:29.644Z,34.83
2018-02-17T18:16:57.956Z,35.73
2018-02-17T18:19:26.332Z,32.07
2018-02-17T18:21:54.643Z,31.87
2018-02-17T18:24:23.804Z,28.60
2018-02-17T18:26:52.162Z,30.13
2018-02-17T18:29:20.495Z,31.70
2018-02-17T18:31:49.578Z,31.20
2018-02-17T18:34:17.895Z,30.87
2018-02-17T18:36:46.208Z,30.47
2018-02-17T18:39:14.538Z,29.20
2018-02-17T18:41:43.691Z,28.30
2018-02-17T18:44:12.758Z,28.00
2018-02-17T18:46:41.061Z,27.80
2018-02-17T18:49:09.376Z,27.93
2018-02-17T18:51:37.682Z,33.40
2018-02-17T18:54:06.836Z,32.57
2018-02-17T18:56:35.260Z,33.27
2018-02-17T18:59:03.595Z,30.00
2018-02-17T19:01:31.883Z,30.95
2018-02-17T19:04:01.032Z,29.60
2018-02-17T19:06:30.136Z,30.70
2018-02-17T19:08:59.240Z,25.97
2018-02-17T19:11:28.356Z,29.13
2018-02-17T19:13:56.664Z,32.77
2018-02-17T19:16:24.986Z,35.37
2018-02-17T19:18:54.074Z,30.97
2018-02-17T19:21:23.210Z,28.90
2018-02-17T19:23:51.557Z,28.37
2018-02-17T19:26:20.667Z,29.70
2018-02-17T19:28:50.528Z,28.60
2018-02-17T19:31:18.889Z,31.63
2018-02-17T19:33:48.142Z,29.97
2018-02-17T19:36:17.209Z,29.37
2018-02-17T19:38:45.506Z,30.90
2018-02-17T19:41:13.881Z,32.53
2018-02-17T19:43:42.238Z,32.97
2018-02-17T19:46:10.576Z,36.30
2018-02-17T19:48:38.897Z,36.30
2018-02-17T19:51:07.211Z,34.07
2018-02-17T19:53:35.524Z,36.50
2018-02-17T19:56:04.628Z,36.20
2018-02-17T19:58:33.742Z,37.87
2018-02-17T20:01:02.049Z,37.43
2018-02-17T20:03:30.389Z,36.67
2018-02-17T20:05:59.450Z,36.50
2018-02-17T20:08:27.794Z,35.23
2018-02-17T20:10:56.196Z,35.13
2018-02-17T20:13:24.582Z,34.87
2018-02-17T20:15:52.896Z,32.73
2018-02-17T20:18:21.988Z,35.87
2018-02-17T20:20:50.295Z,37.53
2018-02-17T20:23:19.471Z,35.03
2018-02-17T20:25:48.528Z,36.27
2018-02-17T20:28:16.868Z,36.77
2018-02-17T20:30:45.198Z,36.70
2018-02-17T20:33:13.526Z,36.80
2018-02-17T20:35:41.866Z,34.63
2018-02-17T20:38:16.864Z,36.13
2018-02-17T20:40:45.340Z,38.37
2018-02-17T20:43:14.430Z,38.90
2018-02-17T20:45:43.540Z,37.40
2018-02-17T20:48:12.620Z,38.17
2018-02-17T20:50:41.758Z,36.23
2018-02-17T20:53:10.115Z,37.93
2018-02-17T20:55:39.248Z,36.70
2018-02-17T20:58:07.633Z,41.40
2018-02-17T21:00:36.031Z,40.13
2018-02-17T21:03:05.106Z,39.23
2018-02-17T21:05:33.497Z,37.80
2018-02-17T21:08:01.806Z,38.40
2018-02-17T21:10:30.121Z,37.20
2018-02-17T21:12:59.204Z,39.80
2018-02-17T21:15:27.528Z,38.23
2018-02-17T21:17:55.955Z,38.50
2018-02-17T21:20:24.264Z,38.83
2018-02-17T21:22:53.336Z,46.83
2018-02-17T21:25:21.677Z,44.23
2018-02-17T21:27:50.112Z,46.40
2018-02-17T21:30:18.646Z,42.10
2018-02-17T21:32:46.948Z,41.40
2018-02-17T21:35:18.614Z,40.80
2018-02-17T21:37:46.963Z,38.00
2018-02-17T21:40:15.348Z,41.00
2018-02-17T21:42:43.684Z,37.60
2018-02-17T21:45:12.008Z,41.63
2018-02-17T21:47:40.322Z,40.97
2018-02-17T21:50:08.680Z,40.57
2018-02-17T21:52:36.980Z,39.17
2018-02-17T21:55:05.280Z,39.53
2018-02-17T21:57:34.258Z,36.50
2018-02-17T22:00:02.629Z,34.47
2018-02-17T22:02:31.672Z,33.77
2018-02-17T22:05:00.033Z,35.77
2018-02-17T22:07:28.469Z,38.43
2018-02-17T22:09:56.790Z,37.77
2018-02-17T22:12:25.122Z,32.27
2018-02-17T22:17:28.704Z,31.90
2018-02-17T22:19:57.049Z,42.60
2018-02-17T22:22:25.421Z,43.13
2018-02-17T22:24:53.726Z,35.30
2018-02-17T22:27:22.058Z,33.17
2018-02-17T22:29:51.278Z,32.40
2018-02-17T22:32:19.605Z,33.10
2018-02-17T22:34:47.928Z,33.37
2018-02-17T22:37:17.043Z,33.90
2018-02-17T22:39:45.376Z,32.07
2018-02-17T22:42:13.720Z,33.67
2018-02-17T22:44:42.039Z,34.23
2018-02-17T22:47:10.356Z,34.73
2018-02-17T22:49:38.700Z,32.50
2018-02-17T22:52:07.014Z,33.38
2018-02-17T22:54:36.253Z,32.80
2018-02-17T22:57:04.582Z,29.90
2018-02-17T22:59:33.684Z,33.17
2018-02-17T23:02:02.074Z,33.60
2018-02-17T23:04:31.156Z,32.33
2018-02-17T23:07:00.254Z,31.73
2018-02-17T23:09:29.349Z,33.47
2018-02-17T23:11:58.436Z,32.80
2018-02-17T23:14:26.747Z,32.60
2018-02-17T23:16:55.885Z,31.83
2018-02-17T23:19:24.213Z,33.80
2018-02-17T23:21:52.617Z,34.07
2018-02-17T23:24:21.093Z,31.40
2018-02-17T23:26:49.448Z,32.67
2018-02-17T23:29:17.802Z,33.10
2018-02-17T23:31:46.270Z,31.40
2018-02-17T23:34:14.578Z,30.60
2018-02-17T23:36:42.928Z,31.90
2018-02-17T23:39:12.028Z,32.13
2018-02-17T23:41:40.356Z,32.83
2018-02-17T23:44:08.729Z,33.40
2018-02-17T23:46:37.018Z,35.47
2018-02-17T23:49:05.499Z,32.27
2018-02-17T23:51:33.896Z,30.27
2018-02-17T23:54:02.246Z,32.63
2018-02-17T23:56:30.571Z,32.57
2018-02-17T23:58:59.663Z,28.97
